createdAt,value
2022-09-05T00:03:35.658Z,12.79
2022-09-05T00:07:44.689Z,12.76
2022-09-05T00:11:43.964Z,12.72
2022-09-05T00:15:40.857Z,12.69
2022-09-05T00:24:21.470Z,12.65
2022-09-05T00:24:45.605Z,12.61
2022-09-05T00:28:26.644Z,12.57
2022-09-05T00:32:21.405Z,12.53
2022-09-05T00:36:21.825Z,12.51
2022-09-05T00:40:26.830Z,12.47
2022-09-05T00:44:15.266Z,12.43
2022-09-05T00:48:09.831Z,12.38
2022-09-05T00:52:02.003Z,12.35
2022-09-05T00:56:03.088Z,12.32
2022-09-05T01:00:06.361Z,12.29
2022-09-05T01:04:11.691Z,12.26
2022-09-05T01:08:18.155Z,12.23
2022-09-05T01:12:33.612Z,12.19
2022-09-05T01:16:27.697Z,12.16
2022-09-05T01:20:38.500Z,12.10
2022-09-05T01:24:51.523Z,12.08
2022-09-05T01:29:15.905Z,12.05
2022-09-05T01:33:05.717Z,12.06
2022-09-05T01:37:00.574Z,12.09
2022-09-05T01:41:17.985Z,12.10
2022-09-05T01:45:08.355Z,12.09
2022-09-05T01:49:00.387Z,12.10
2022-09-05T01:53:07.129Z,12.10
2022-09-05T01:57:11.134Z,12.07
2022-09-05T02:01:26.643Z,12.03
2022-09-05T02:05:48.194Z,11.96
2022-09-05T02:09:43.528Z,11.88
2022-09-05T02:13:43.356Z,11.80
2022-09-05T02:17:51.244Z,11.73
2022-09-05T02:21:57.148Z,11.66
2022-09-05T02:26:00.981Z,11.59
2022-09-05T02:29:57.273Z,11.54
2022-09-05T02:33:49.085Z,11.48
2022-09-05T02:39:16.196Z,11.42
2022-09-05T02:45:11.902Z,11.35
2022-09-05T02:46:11.395Z,11.28
2022-09-05T02:54:14.260Z,11.24
2022-09-05T02:57:39.949Z,11.19
2022-09-05T02:59:09.090Z,11.16
2022-09-05T03:03:16.988Z,11.14
2022-09-05T03:07:15.645Z,11.15
2022-09-05T03:11:32.671Z,11.17
2022-09-05T03:16:08.348Z,11.21
2022-09-05T03:20:28.878Z,11.25
2022-09-05T03:25:02.666Z,11.26
2022-09-05T03:29:24.428Z,11.24
2022-09-05T03:33:55.019Z,11.21
2022-09-05T03:38:13.954Z,11.16
2022-09-05T03:42:15.596Z,11.10
2022-09-05T03:46:23.260Z,11.03
2022-09-05T03:55:45.402Z,10.94
2022-09-05T03:57:18.763Z,10.85
2022-09-05T03:59:40.595Z,10.77
2022-09-05T04:08:10.403Z,10.69
2022-09-05T04:08:27.683Z,10.63
2022-09-05T04:11:54.235Z,10.58
2022-09-05T04:15:43.555Z,10.53
2022-09-05T04:19:36.317Z,10.52
2022-09-05T04:23:31.641Z,10.52
2022-09-05T04:27:39.795Z,10.55
2022-09-05T04:31:32.391Z,10.61
2022-09-05T04:35:31.309Z,10.68
2022-09-05T04:39:32.391Z,10.76
2022-09-05T04:43:32.904Z,10.85
2022-09-05T04:47:27.245Z,10.93
2022-09-05T04:51:40.590Z,11.02
2022-09-05T04:55:32.167Z,11.08
2022-09-05T05:02:38.105Z,11.12
2022-09-05T05:06:19.740Z,11.16
2022-09-05T05:07:47.521Z,11.16
2022-09-05T05:17:33.029Z,11.18
2022-09-05T05:18:03.732Z,11.22
2022-09-05T05:20:39.774Z,11.24
2022-09-05T05:24:29.690Z,11.30
2022-09-05T05:28:24.027Z,11.36
2022-09-05T05:32:10.195Z,11.43
2022-09-05T05:35:58.260Z,11.51
2022-09-05T05:39:48.242Z,11.58
2022-09-05T05:43:46.314Z,11.69
2022-09-05T05:47:38.265Z,11.81
2022-09-05T05:52:01.655Z,11.96
2022-09-05T05:56:04.925Z,12.13
2022-09-05T06:00:15.199Z,12.28
2022-09-05T06:04:23.399Z,12.43
2022-09-05T06:13:02.293Z,12.56
2022-09-05T06:15:01.623Z,12.68
2022-09-05T06:17:49.229Z,12.79
2022-09-05T06:22:11.512Z,12.86
2022-09-05T06:26:27.278Z,12.90
2022-09-05T06:30:16.345Z,12.98
2022-09-05T06:34:35.027Z,13.06
2022-09-05T06:38:44.425Z,13.11
2022-09-05T06:42:53.043Z,13.17
2022-09-05T06:47:07.742Z,13.26
2022-09-05T06:51:07.737Z,13.35
2022-09-05T06:55:17.491Z,13.43
2022-09-05T06:59:41.997Z,13.53
2022-09-05T07:03:41.212Z,13.64
2022-09-05T07:07:35.712Z,13.76
2022-09-05T07:11:24.389Z,13.87
2022-09-05T07:15:19.266Z,13.99
2022-09-05T07:19:17.456Z,14.12
2022-09-05T07:23:23.077Z,14.24
2022-09-05T07:27:41.707Z,14.37
2022-09-05T07:31:41.364Z,14.49
2022-09-05T07:35:31.253Z,14.61
2022-09-05T07:39:31.858Z,14.75
2022-09-05T07:43:23.644Z,14.89
2022-09-05T07:47:16.054Z,15.03
2022-09-05T07:56:19.186Z,15.17
2022-09-05T07:57:07.927Z,15.32
2022-09-05T07:59:36.915Z,15.48
2022-09-05T08:03:29.515Z,15.63
2022-09-05T08:07:49.161Z,15.77
2022-09-05T08:11:32.718Z,15.88
2022-09-05T08:15:23.774Z,16.06
2022-09-05T08:19:30.822Z,16.19
2022-09-05T08:23:36.575Z,16.34
2022-09-05T08:27:25.969Z,16.51
2022-09-05T08:31:16.701Z,16.68
2022-09-05T08:35:08.867Z,16.82
2022-09-05T08:38:54.616Z,16.98
2022-09-05T08:42:52.735Z,17.12
2022-09-05T08:47:02.203Z,17.31
2022-09-05T08:51:07.210Z,17.45
2022-09-05T08:55:07.388Z,17.58
2022-09-05T08:59:27.585Z,17.71
2022-09-05T09:03:25.782Z,17.86
2022-09-05T09:07:48.224Z,17.99
2022-09-05T09:11:44.838Z,18.14
2022-09-05T09:15:36.870Z,18.28
2022-09-05T09:19:29.419Z,18.42
2022-09-05T09:23:31.825Z,18.60
2022-09-05T09:28:47.701Z,18.77
2022-09-05T09:32:16.506Z,18.96
2022-09-05T09:36:09.965Z,19.10
2022-09-05T09:40:24.100Z,19.23
2022-09-05T09:44:39.969Z,19.36
2022-09-05T09:48:55.428Z,19.48
2022-09-05T09:53:04.056Z,19.54
2022-09-05T09:57:22.596Z,19.62
2022-09-05T10:01:34.747Z,19.77
2022-09-05T10:10:34.599Z,19.89
2022-09-05T10:10:57.644Z,20.02
2022-09-05T11:01:10.393Z,-97.85
2022-09-05T11:03:15.474Z,-128.00
2022-09-05T11:07:15.912Z,-128.00
2022-09-05T11:11:10.518Z,-128.00
2022-09-05T11:23:43.381Z,24.01
2022-09-05T11:27:41.787Z,24.07
2022-09-05T11:31:47.744Z,24.13
2022-09-05T11:39:53.790Z,24.10
2022-09-05T11:40:36.558Z,24.05
2022-09-05T11:44:35.976Z,24.00
2022-09-05T11:48:38.539Z,23.97
2022-09-05T11:52:59.000Z,23.94
2022-09-05T11:57:33.556Z,23.92
2022-09-05T12:01:43.336Z,23.91
2022-09-05T12:10:45.778Z,23.89
2022-09-05T12:14:42.461Z,23.89
2022-09-05T12:18:43.379Z,23.86
2022-09-05T12:22:38.801Z,23.87
2022-09-05T12:27:42.270Z,23.85
2022-09-05T12:31:00.721Z,23.85
2022-09-05T12:36:06.950Z,23.89
2022-09-05T12:41:01.130Z,23.89
2022-09-05T12:41:40.967Z,23.90
2022-09-05T12:44:37.177Z,23.90
2022-09-05T12:47:59.047Z,23.90
2022-09-05T12:51:55.289Z,23.89
2022-09-05T12:55:42.605Z,23.90
2022-09-05T13:02:57.471Z,23.91
2022-09-05T13:04:16.482Z,23.93
2022-09-05T13:14:50.918Z,24.00
2022-09-05T13:15:27.944Z,24.06
2022-09-05T13:19:28.591Z,24.11
2022-09-05T13:23:23.165Z,24.13
2022-09-05T13:27:15.253Z,24.17
2022-09-05T13:37:46.990Z,24.19
2022-09-05T13:38:12.339Z,24.21
2022-09-05T13:39:23.281Z,24.23
2022-09-05T13:43:13.141Z,24.23
2022-09-05T13:47:14.756Z,24.24
2022-09-05T13:51:30.212Z,24.25
2022-09-05T13:55:26.052Z,24.29
2022-09-05T13:59:14.603Z,24.32
2022-09-05T14:03:31.829Z,24.34
2022-09-05T14:07:52.277Z,24.33
2022-09-05T14:12:03.867Z,24.32
2022-09-05T14:15:59.889Z,24.32
2022-09-05T14:20:04.121Z,24.32
2022-09-05T14:23:59.603Z,24.35
2022-09-05T14:27:52.192Z,24.37
2022-09-05T14:37:12.946Z,24.40
2022-09-05T14:38:00.625Z,24.44
2022-09-05T14:39:35.808Z,24.47
2022-09-05T14:43:35.597Z,24.49
2022-09-05T14:47:36.296Z,24.52
2022-09-05T14:51:26.193Z,24.54
2022-09-05T15:02:42.985Z,24.58
2022-09-05T15:03:00.279Z,24.58
2022-09-05T15:06:32.925Z,24.57
2022-09-05T15:12:15.235Z,24.56
2022-09-05T15:14:30.223Z,24.55
2022-09-05T15:18:01.891Z,24.53
2022-09-05T15:21:42.200Z,24.52
2022-09-05T15:25:22.615Z,24.51
2022-09-05T15:28:52.283Z,24.50
2022-09-05T15:32:40.985Z,24.47
2022-09-05T15:36:13.614Z,24.45
2022-09-05T15:39:43.793Z,24.43
2022-09-05T15:43:19.998Z,24.41
2022-09-05T15:46:58.084Z,24.40
2022-09-05T15:50:27.119Z,24.39
2022-09-05T15:53:56.680Z,24.38
2022-09-05T15:58:52.726Z,24.30
2022-09-05T16:02:20.915Z,23.69
2022-09-05T16:10:33.859Z,23.11
2022-09-05T16:10:39.108Z,22.61
2022-09-05T16:13:53.173Z,22.17
2022-09-05T16:23:19.237Z,21.84
2022-09-05T16:23:36.409Z,21.53
2022-09-05T16:25:16.584Z,21.28
2022-09-05T16:28:53.039Z,21.08
2022-09-05T16:32:31.258Z,20.90
2022-09-05T16:36:16.335Z,20.75
2022-09-05T16:39:49.457Z,20.60
2022-09-05T16:43:21.680Z,20.45
2022-09-05T16:47:23.656Z,20.31
2022-09-05T16:51:15.783Z,20.16
2022-09-05T16:54:50.980Z,20.00
2022-09-05T16:58:23.350Z,19.86
2022-09-05T17:02:05.749Z,19.71
2022-09-05T17:05:46.202Z,19.55
2022-09-05T17:09:25.194Z,19.39
2022-09-05T17:13:07.838Z,19.25
2022-09-05T17:16:56.098Z,19.09
2022-09-05T17:20:27.754Z,18.95
2022-09-05T17:29:17.918Z,18.83
2022-09-05T17:29:49.900Z,18.72
2022-09-05T17:35:42.855Z,18.48
2022-09-05T17:39:44.136Z,18.38
2022-09-05T17:43:28.707Z,18.28
2022-09-05T17:47:08.247Z,18.17
2022-09-05T17:50:54.336Z,18.09
2022-09-05T17:54:35.196Z,18.00
2022-09-05T17:58:34.680Z,17.88
2022-09-05T18:02:35.387Z,17.79
2022-09-05T18:06:12.506Z,17.71
2022-09-05T18:10:14.789Z,17.65
2022-09-05T18:14:00.611Z,17.56
2022-09-05T18:22:06.641Z,17.38
2022-09-05T18:25:46.010Z,17.29
2022-09-05T18:29:58.206Z,17.21
2022-09-05T18:33:53.522Z,17.11
2022-09-05T18:37:41.821Z,17.02
2022-09-05T18:41:18.578Z,16.93
2022-09-05T18:44:50.377Z,16.84
2022-09-05T18:48:29.017Z,16.78
2022-09-05T18:52:06.212Z,16.71
2022-09-05T18:56:14.015Z,16.64
2022-09-05T18:59:28.793Z,16.57
2022-09-05T19:03:06.375Z,16.52
2022-09-05T19:06:45.243Z,16.46
2022-09-05T19:10:34.301Z,16.38
2022-09-05T19:14:28.576Z,16.31
2022-09-05T19:18:03.712Z,16.21
2022-09-05T19:22:09.117Z,16.15
2022-09-05T19:26:09.858Z,16.08
2022-09-05T19:36:52.546Z,15.92
2022-09-05T19:36:53.308Z,16.01
2022-09-05T19:37:41.015Z,15.85
2022-09-05T19:47:31.172Z,15.78
2022-09-05T19:47:46.588Z,15.70
2022-09-05T19:49:08.108Z,15.63
2022-09-05T19:52:39.486Z,15.55
2022-09-05T19:56:07.447Z,15.49
2022-09-05T19:59:38.498Z,15.43
2022-09-05T20:03:09.540Z,15.39
2022-09-05T20:06:40.351Z,15.33
2022-09-05T20:10:08.659Z,15.27
2022-09-05T20:13:41.247Z,15.20
2022-09-05T20:17:25.216Z,15.14
2022-09-05T20:21:02.202Z,15.09
2022-09-05T20:24:36.643Z,15.03
2022-09-05T20:28:09.886Z,14.97
2022-09-05T20:31:47.569Z,14.91
2022-09-05T20:41:06.930Z,14.86
2022-09-05T20:43:24.924Z,14.77
2022-09-05T20:43:37.931Z,14.70
2022-09-05T20:53:49.252Z,14.63
2022-09-05T20:54:18.859Z,14.58
2022-09-05T20:54:53.584Z,14.53
2022-09-05T20:58:31.472Z,14.49
2022-09-05T21:02:05.900Z,14.46
2022-09-05T21:05:35.565Z,14.42
2022-09-05T21:09:22.601Z,14.39
2022-09-05T21:12:57.814Z,14.32
2022-09-05T21:16:33.333Z,14.26
2022-09-05T21:20:09.486Z,14.23
2022-09-05T21:23:53.308Z,14.19
2022-09-05T21:31:28.249Z,14.10
2022-09-05T21:34:57.400Z,14.07
2022-09-05T21:38:32.482Z,14.03
2022-09-05T21:42:35.638Z,14.00
2022-09-05T21:49:35.454Z,13.92
2022-09-05T21:54:06.505Z,13.89
2022-09-05T21:59:32.588Z,13.85
2022-09-05T22:00:46.632Z,13.78
2022-09-05T22:04:16.074Z,13.75
2022-09-05T22:07:45.864Z,13.71
2022-09-05T22:11:15.488Z,13.68
2022-09-05T22:14:44.168Z,13.65
2022-09-05T22:18:17.475Z,13.60
2022-09-05T22:21:59.449Z,13.56
2022-09-05T22:25:34.522Z,13.51
2022-09-05T22:29:03.765Z,13.50
2022-09-05T22:32:35.546Z,13.47
2022-09-05T22:36:14.702Z,13.44
2022-09-05T22:40:06.131Z,13.41
2022-09-05T22:43:50.621Z,13.35
2022-09-05T22:47:28.121Z,13.30
2022-09-05T22:51:06.346Z,13.24
2022-09-05T22:54:34.221Z,13.20
2022-09-05T22:58:30.353Z,13.17
2022-09-05T23:02:03.639Z,13.10
2022-09-05T23:05:38.623Z,13.02
2022-09-05T23:09:07.607Z,12.98
2022-09-05T23:12:38.291Z,12.94
2022-09-05T23:16:06.577Z,12.91
2022-09-05T23:19:37.046Z,12.87
2022-09-05T23:23:08.187Z,12.84
2022-09-05T23:26:35.667Z,12.81
2022-09-05T23:30:02.714Z,12.77
2022-09-05T23:33:30.393Z,12.74
2022-09-05T23:36:57.641Z,12.69
2022-09-05T23:40:25.702Z,12.63
2022-09-05T23:43:53.271Z,12.59
2022-09-05T23:47:20.441Z,12.55
2022-09-05T23:50:47.694Z,12.51
2022-09-05T23:54:14.333Z,12.48
2022-09-05T23:57:41.253Z,12.44
